sensor_id;sensor_type;location;lat;lon;timestamp;P1;durP1;ratioP1;P2;durP2;ratioP2
46365;SDS011;32073;49.166;8.076;2023-02-28T00:02:13;2.13;;;1.35;;
46365;SDS011;32073;49.166;8.076;2023-02-28T00:06:14;2.65;;;1.45;;
46365;SDS011;32073;49.166;8.076;2023-02-28T00:10:16;2.65;;;1.50;;
46365;SDS011;32073;49.166;8.076;2023-02-28T00:14:23;2.60;;;1.45;;
46365;SDS011;32073;49.166;8.076;2023-02-28T00:18:24;1.35;;;1.10;;
46365;SDS011;32073;49.166;8.076;2023-02-28T00:22:24;1.83;;;1.02;;
46365;SDS011;32073;49.166;8.076;2023-02-28T00:26:25;2.55;;;1.48;;
46365;SDS011;32073;49.166;8.076;2023-02-28T00:30:25;2.20;;;1.23;;
46365;SDS011;32073;49.166;8.076;2023-02-28T00:34:26;1.63;;;1.00;;
46365;SDS011;32073;49.166;8.076;2023-02-28T00:38:27;2.28;;;1.20;;
46365;SDS011;32073;49.166;8.076;2023-02-28T00:42:27;1.73;;;1.17;;
46365;SDS011;32073;49.166;8.076;2023-02-28T00:46:28;2.05;;;1.13;;
46365;SDS011;32073;49.166;8.076;2023-02-28T00:50:29;1.90;;;1.05;;
46365;SDS011;32073;49.166;8.076;2023-02-28T00:54:29;2.33;;;1.27;;
46365;SDS011;32073;49.166;8.076;2023-02-28T00:58:30;2.30;;;1.40;;
46365;SDS011;32073;49.166;8.076;2023-02-28T01:02:31;2.53;;;1.00;;
46365;SDS011;32073;49.166;8.076;2023-02-28T01:06:31;1.77;;;1.20;;
46365;SDS011;32073;49.166;8.076;2023-02-28T01:10:32;1.33;;;1.02;;
46365;SDS011;32073;49.166;8.076;2023-02-28T01:14:34;2.72;;;1.20;;
46365;SDS011;32073;49.166;8.076;2023-02-28T01:18:35;1.95;;;1.30;;
46365;SDS011;32073;49.166;8.076;2023-02-28T01:22:37;2.83;;;1.35;;
46365;SDS011;32073;49.166;8.076;2023-02-28T01:26:38;3.03;;;1.20;;
46365;SDS011;32073;49.166;8.076;2023-02-28T01:30:38;2.15;;;1.35;;
46365;SDS011;32073;49.166;8.076;2023-02-28T01:34:39;2.65;;;1.42;;
46365;SDS011;32073;49.166;8.076;2023-02-28T01:38:40;1.88;;;1.20;;
46365;SDS011;32073;49.166;8.076;2023-02-28T01:42:42;2.65;;;1.35;;
46365;SDS011;32073;49.166;8.076;2023-02-28T01:46:43;2.58;;;1.30;;
46365;SDS011;32073;49.166;8.076;2023-02-28T01:50:43;2.85;;;1.23;;
46365;SDS011;32073;49.166;8.076;2023-02-28T01:54:48;2.45;;;1.67;;
46365;SDS011;32073;49.166;8.076;2023-02-28T01:58:54;1.77;;;1.20;;
46365;SDS011;32073;49.166;8.076;2023-02-28T02:02:57;2.00;;;1.42;;
46365;SDS011;32073;49.166;8.076;2023-02-28T02:07:01;1.88;;;1.40;;
46365;SDS011;32073;49.166;8.076;2023-02-28T02:11:03;2.50;;;1.52;;
46365;SDS011;32073;49.166;8.076;2023-02-28T02:15:11;3.80;;;1.63;;
46365;SDS011;32073;49.166;8.076;2023-02-28T02:24:06;2.97;;;1.70;;
46365;SDS011;32073;49.166;8.076;2023-02-28T02:28:41;3.78;;;1.45;;
46365;SDS011;32073;49.166;8.076;2023-02-28T02:32:59;2.05;;;1.40;;
46365;SDS011;32073;49.166;8.076;2023-02-28T02:37:47;1.70;;;1.45;;
46365;SDS011;32073;49.166;8.076;2023-02-28T02:42:01;3.42;;;2.00;;
46365;SDS011;32073;49.166;8.076;2023-02-28T02:46:15;2.60;;;1.90;;
46365;SDS011;32073;49.166;8.076;2023-02-28T02:50:23;2.43;;;1.80;;
46365;SDS011;32073;49.166;8.076;2023-02-28T02:58:38;4.50;;;2.10;;
46365;SDS011;32073;49.166;8.076;2023-02-28T03:02:43;2.20;;;1.75;;
46365;SDS011;32073;49.166;8.076;2023-02-28T03:06:45;3.33;;;1.80;;
46365;SDS011;32073;49.166;8.076;2023-02-28T03:10:48;5.70;;;1.70;;
46365;SDS011;32073;49.166;8.076;2023-02-28T03:29:00;4.20;;;2.20;;
46365;SDS011;32073;49.166;8.076;2023-02-28T03:37:14;3.55;;;2.17;;
46365;SDS011;32073;49.166;8.076;2023-02-28T03:41:21;3.75;;;2.17;;
46365;SDS011;32073;49.166;8.076;2023-02-28T03:45:28;2.85;;;1.83;;
46365;SDS011;32073;49.166;8.076;2023-02-28T03:49:34;3.35;;;2.10;;
46365;SDS011;32073;49.166;8.076;2023-02-28T03:53:47;3.65;;;2.30;;
46365;SDS011;32073;49.166;8.076;2023-02-28T03:57:58;3.20;;;2.15;;
46365;SDS011;32073;49.166;8.076;2023-02-28T04:02:11;4.68;;;2.47;;
46365;SDS011;32073;49.166;8.076;2023-02-28T04:06:16;4.90;;;2.65;;
46365;SDS011;32073;49.166;8.076;2023-02-28T04:10:20;3.63;;;2.47;;
46365;SDS011;32073;49.166;8.076;2023-02-28T04:14:21;3.83;;;2.05;;
46365;SDS011;32073;49.166;8.076;2023-02-28T04:18:22;3.45;;;2.20;;
46365;SDS011;32073;49.166;8.076;2023-02-28T04:22:23;4.60;;;2.65;;
46365;SDS011;32073;49.166;8.076;2023-02-28T04:26:32;4.53;;;2.63;;
46365;SDS011;32073;49.166;8.076;2023-02-28T04:34:35;4.03;;;2.30;;
46365;SDS011;32073;49.166;8.076;2023-02-28T04:38:37;4.00;;;2.22;;
46365;SDS011;32073;49.166;8.076;2023-02-28T04:42:39;3.30;;;2.40;;
46365;SDS011;32073;49.166;8.076;2023-02-28T04:46:39;5.68;;;2.78;;
46365;SDS011;32073;49.166;8.076;2023-02-28T04:50:40;3.78;;;2.50;;
46365;SDS011;32073;49.166;8.076;2023-02-28T04:54:41;4.32;;;2.58;;
46365;SDS011;32073;49.166;8.076;2023-02-28T04:58:41;4.80;;;2.58;;
46365;SDS011;32073;49.166;8.076;2023-02-28T05:02:42;3.97;;;2.42;;
46365;SDS011;32073;49.166;8.076;2023-02-28T05:06:43;4.57;;;2.55;;
46365;SDS011;32073;49.166;8.076;2023-02-28T05:10:44;3.90;;;2.67;;
46365;SDS011;32073;49.166;8.076;2023-02-28T05:14:44;4.50;;;2.72;;
46365;SDS011;32073;49.166;8.076;2023-02-28T05:18:45;4.68;;;2.35;;
46365;SDS011;32073;49.166;8.076;2023-02-28T05:22:46;3.33;;;2.40;;
46365;SDS011;32073;49.166;8.076;2023-02-28T05:26:47;6.82;;;2.95;;
46365;SDS011;32073;49.166;8.076;2023-02-28T05:30:48;4.47;;;2.75;;
46365;SDS011;32073;49.166;8.076;2023-02-28T05:34:49;4.85;;;3.35;;
46365;SDS011;32073;49.166;8.076;2023-02-28T05:38:50;4.05;;;2.85;;
46365;SDS011;32073;49.166;8.076;2023-02-28T05:42:51;3.70;;;2.60;;
46365;SDS011;32073;49.166;8.076;2023-02-28T05:46:52;6.43;;;2.80;;
46365;SDS011;32073;49.166;8.076;2023-02-28T05:50:53;4.95;;;2.75;;
46365;SDS011;32073;49.166;8.076;2023-02-28T05:54:53;4.82;;;2.30;;
46365;SDS011;32073;49.166;8.076;2023-02-28T05:58:54;4.10;;;2.60;;
46365;SDS011;32073;49.166;8.076;2023-02-28T06:02:54;6.35;;;2.70;;
46365;SDS011;32073;49.166;8.076;2023-02-28T06:06:57;5.05;;;2.50;;
46365;SDS011;32073;49.166;8.076;2023-02-28T06:10:58;3.92;;;2.60;;
46365;SDS011;32073;49.166;8.076;2023-02-28T06:15:03;3.45;;;2.45;;
46365;SDS011;32073;49.166;8.076;2023-02-28T06:19:05;4.55;;;2.33;;
46365;SDS011;32073;49.166;8.076;2023-02-28T06:23:05;3.75;;;2.30;;
46365;SDS011;32073;49.166;8.076;2023-02-28T06:27:06;6.78;;;3.30;;
46365;SDS011;32073;49.166;8.076;2023-02-28T06:31:11;5.88;;;3.20;;
46365;SDS011;32073;49.166;8.076;2023-02-28T06:35:13;7.28;;;3.08;;
46365;SDS011;32073;49.166;8.076;2023-02-28T06:39:14;7.38;;;3.60;;
46365;SDS011;32073;49.166;8.076;2023-02-28T06:43:15;4.95;;;3.10;;
46365;SDS011;32073;49.166;8.076;2023-02-28T06:47:15;6.72;;;3.17;;
46365;SDS011;32073;49.166;8.076;2023-02-28T06:51:17;5.38;;;2.97;;
46365;SDS011;32073;49.166;8.076;2023-02-28T06:55:24;5.10;;;3.33;;
46365;SDS011;32073;49.166;8.076;2023-02-28T06:59:24;5.55;;;3.25;;
46365;SDS011;32073;49.166;8.076;2023-02-28T07:03:25;6.70;;;3.85;;
46365;SDS011;32073;49.166;8.076;2023-02-28T07:07:26;17.23;;;7.70;;
46365;SDS011;32073;49.166;8.076;2023-02-28T07:11:27;9.90;;;4.72;;
46365;SDS011;32073;49.166;8.076;2023-02-28T07:15:28;12.98;;;5.38;;
46365;SDS011;32073;49.166;8.076;2023-02-28T07:19:28;11.73;;;5.80;;
46365;SDS011;32073;49.166;8.076;2023-02-28T07:23:29;19.88;;;6.53;;
46365;SDS011;32073;49.166;8.076;2023-02-28T07:27:30;17.77;;;7.18;;
46365;SDS011;32073;49.166;8.076;2023-02-28T07:31:31;28.20;;;10.35;;
46365;SDS011;32073;49.166;8.076;2023-02-28T07:35:31;22.25;;;8.70;;
46365;SDS011;32073;49.166;8.076;2023-02-28T07:39:32;11.55;;;5.90;;
46365;SDS011;32073;49.166;8.076;2023-02-28T07:43:33;9.35;;;4.68;;
46365;SDS011;32073;49.166;8.076;2023-02-28T07:47:34;6.75;;;4.00;;
46365;SDS011;32073;49.166;8.076;2023-02-28T07:51:35;6.68;;;3.53;;
46365;SDS011;32073;49.166;8.076;2023-02-28T07:55:35;4.97;;;3.08;;
46365;SDS011;32073;49.166;8.076;2023-02-28T07:59:36;8.10;;;2.90;;
46365;SDS011;32073;49.166;8.076;2023-02-28T08:03:37;5.13;;;3.42;;
46365;SDS011;32073;49.166;8.076;2023-02-28T08:07:38;6.15;;;3.17;;
46365;SDS011;32073;49.166;8.076;2023-02-28T08:11:39;5.97;;;3.10;;
46365;SDS011;32073;49.166;8.076;2023-02-28T08:15:40;8.50;;;3.63;;
46365;SDS011;32073;49.166;8.076;2023-02-28T08:19:44;6.47;;;3.67;;
46365;SDS011;32073;49.166;8.076;2023-02-28T08:23:47;6.63;;;3.80;;
46365;SDS011;32073;49.166;8.076;2023-02-28T08:27:50;6.78;;;4.15;;
46365;SDS011;32073;49.166;8.076;2023-02-28T08:31:52;7.15;;;4.13;;
46365;SDS011;32073;49.166;8.076;2023-02-28T08:35:53;6.18;;;3.70;;
46365;SDS011;32073;49.166;8.076;2023-02-28T08:39:55;6.65;;;4.10;;
46365;SDS011;32073;49.166;8.076;2023-02-28T08:43:56;6.40;;;3.72;;
46365;SDS011;32073;49.166;8.076;2023-02-28T08:47:56;7.07;;;3.85;;
46365;SDS011;32073;49.166;8.076;2023-02-28T08:51:57;4.70;;;3.35;;
46365;SDS011;32073;49.166;8.076;2023-02-28T08:56:02;6.50;;;3.47;;
46365;SDS011;32073;49.166;8.076;2023-02-28T09:00:06;6.87;;;3.87;;
46365;SDS011;32073;49.166;8.076;2023-02-28T09:04:13;6.00;;;3.45;;
46365;SDS011;32073;49.166;8.076;2023-02-28T09:08:14;6.35;;;4.18;;
46365;SDS011;32073;49.166;8.076;2023-02-28T09:12:14;6.10;;;4.20;;
46365;SDS011;32073;49.166;8.076;2023-02-28T09:16:15;6.95;;;4.10;;
46365;SDS011;32073;49.166;8.076;2023-02-28T09:20:17;7.20;;;3.72;;
46365;SDS011;32073;49.166;8.076;2023-02-28T09:24:17;7.75;;;4.45;;
46365;SDS011;32073;49.166;8.076;2023-02-28T09:28:20;7.13;;;3.55;;
46365;SDS011;32073;49.166;8.076;2023-02-28T09:32:21;8.02;;;4.85;;
46365;SDS011;32073;49.166;8.076;2023-02-28T09:36:23;5.00;;;3.40;;
46365;SDS011;32073;49.166;8.076;2023-02-28T09:40:25;7.88;;;4.18;;
46365;SDS011;32073;49.166;8.076;2023-02-28T09:44:28;6.72;;;4.10;;
46365;SDS011;32073;49.166;8.076;2023-02-28T09:48:37;6.97;;;4.20;;
46365;SDS011;32073;49.166;8.076;2023-02-28T09:52:44;7.82;;;4.38;;
46365;SDS011;32073;49.166;8.076;2023-02-28T09:56:49;5.20;;;3.75;;
46365;SDS011;32073;49.166;8.076;2023-02-28T10:05:52;6.15;;;4.13;;
46365;SDS011;32073;49.166;8.076;2023-02-28T10:14:32;6.32;;;4.40;;
46365;SDS011;32073;49.166;8.076;2023-02-28T10:18:39;6.72;;;4.78;;
46365;SDS011;32073;49.166;8.076;2023-02-28T10:22:59;7.53;;;4.65;;
46365;SDS011;32073;49.166;8.076;2023-02-28T10:31:18;7.05;;;4.72;;
46365;SDS011;32073;49.166;8.076;2023-02-28T10:35:24;6.80;;;4.53;;
46365;SDS011;32073;49.166;8.076;2023-02-28T10:43:45;8.25;;;4.70;;
46365;SDS011;32073;49.166;8.076;2023-02-28T10:48:05;7.22;;;4.85;;
46365;SDS011;32073;49.166;8.076;2023-02-28T10:52:37;7.70;;;4.57;;
46365;SDS011;32073;49.166;8.076;2023-02-28T10:56:40;6.82;;;4.38;;
46365;SDS011;32073;49.166;8.076;2023-02-28T11:00:40;7.40;;;4.75;;
46365;SDS011;32073;49.166;8.076;2023-02-28T11:04:41;7.35;;;4.80;;
46365;SDS011;32073;49.166;8.076;2023-02-28T11:08:45;7.70;;;4.50;;
46365;SDS011;32073;49.166;8.076;2023-02-28T11:12:56;9.10;;;4.47;;
46365;SDS011;32073;49.166;8.076;2023-02-28T11:16:59;7.90;;;5.15;;
46365;SDS011;32073;49.166;8.076;2023-02-28T11:21:35;7.50;;;5.03;;
46365;SDS011;32073;49.166;8.076;2023-02-28T11:25:40;6.88;;;4.68;;
46365;SDS011;32073;49.166;8.076;2023-02-28T11:29:50;9.57;;;5.40;;
46365;SDS011;32073;49.166;8.076;2023-02-28T11:33:52;9.02;;;5.32;;
46365;SDS011;32073;49.166;8.076;2023-02-28T11:37:54;7.43;;;4.55;;
46365;SDS011;32073;49.166;8.076;2023-02-28T12:12:54;7.95;;;5.00;;
46365;SDS011;32073;49.166;8.076;2023-02-28T12:17:32;7.28;;;4.70;;
46365;SDS011;32073;49.166;8.076;2023-02-28T12:30:47;8.82;;;5.47;;
46365;SDS011;32073;49.166;8.076;2023-02-28T12:35:10;7.65;;;5.00;;
46365;SDS011;32073;49.166;8.076;2023-02-28T12:39:29;6.53;;;4.57;;
46365;SDS011;32073;49.166;8.076;2023-02-28T12:43:37;7.28;;;4.78;;
46365;SDS011;32073;49.166;8.076;2023-02-28T12:47:44;8.27;;;5.28;;
46365;SDS011;32073;49.166;8.076;2023-02-28T12:51:51;7.10;;;4.45;;
46365;SDS011;32073;49.166;8.076;2023-02-28T12:56:03;8.32;;;5.10;;
46365;SDS011;32073;49.166;8.076;2023-02-28T13:00:20;6.68;;;4.95;;
46365;SDS011;32073;49.166;8.076;2023-02-28T13:04:32;6.88;;;4.85;;
46365;SDS011;32073;49.166;8.076;2023-02-28T13:09:02;7.25;;;5.05;;
46365;SDS011;32073;49.166;8.076;2023-02-28T13:13:13;7.00;;;5.10;;
46365;SDS011;32073;49.166;8.076;2023-02-28T13:17:21;8.25;;;5.82;;
46365;SDS011;32073;49.166;8.076;2023-02-28T13:21:29;7.80;;;5.22;;
46365;SDS011;32073;49.166;8.076;2023-02-28T13:29:38;7.68;;;5.38;;
46365;SDS011;32073;49.166;8.076;2023-02-28T13:34:24;9.48;;;6.20;;
46365;SDS011;32073;49.166;8.076;2023-02-28T13:38:32;9.25;;;5.82;;
46365;SDS011;32073;49.166;8.076;2023-02-28T13:50:48;9.15;;;5.22;;
46365;SDS011;32073;49.166;8.076;2023-02-28T13:59:48;8.93;;;5.67;;
46365;SDS011;32073;49.166;8.076;2023-02-28T14:04:29;8.00;;;5.13;;
46365;SDS011;32073;49.166;8.076;2023-02-28T14:08:54;8.05;;;5.60;;
46365;SDS011;32073;49.166;8.076;2023-02-28T14:13:14;9.55;;;6.00;;
46365;SDS011;32073;49.166;8.076;2023-02-28T14:17:17;7.47;;;5.60;;
46365;SDS011;32073;49.166;8.076;2023-02-28T14:25:51;7.75;;;5.78;;
46365;SDS011;32073;49.166;8.076;2023-02-28T14:43:19;7.65;;;5.72;;
46365;SDS011;32073;49.166;8.076;2023-02-28T14:47:23;9.07;;;5.80;;
46365;SDS011;32073;49.166;8.076;2023-02-28T14:51:32;8.15;;;5.22;;
46365;SDS011;32073;49.166;8.076;2023-02-28T14:55:36;11.90;;;7.30;;
46365;SDS011;32073;49.166;8.076;2023-02-28T14:59:37;10.30;;;6.68;;
46365;SDS011;32073;49.166;8.076;2023-02-28T15:03:38;10.75;;;6.45;;
46365;SDS011;32073;49.166;8.076;2023-02-28T15:07:40;13.25;;;7.65;;
46365;SDS011;32073;49.166;8.076;2023-02-28T15:11:41;10.18;;;6.43;;
46365;SDS011;32073;49.166;8.076;2023-02-28T15:15:59;8.77;;;5.57;;
46365;SDS011;32073;49.166;8.076;2023-02-28T15:20:04;6.63;;;5.07;;
46365;SDS011;32073;49.166;8.076;2023-02-28T15:24:07;10.18;;;5.95;;
46365;SDS011;32073;49.166;8.076;2023-02-28T15:28:23;9.25;;;5.65;;
46365;SDS011;32073;49.166;8.076;2023-02-28T15:32:26;8.95;;;6.10;;
46365;SDS011;32073;49.166;8.076;2023-02-28T15:36:34;16.25;;;8.38;;
46365;SDS011;32073;49.166;8.076;2023-02-28T15:40:38;9.27;;;6.45;;
46365;SDS011;32073;49.166;8.076;2023-02-28T15:44:43;10.32;;;7.18;;
46365;SDS011;32073;49.166;8.076;2023-02-28T15:52:55;11.10;;;6.65;;
46365;SDS011;32073;49.166;8.076;2023-02-28T15:56:57;12.95;;;7.55;;
46365;SDS011;32073;49.166;8.076;2023-02-28T16:01:04;13.10;;;7.35;;
46365;SDS011;32073;49.166;8.076;2023-02-28T16:09:16;29.40;;;12.32;;
46365;SDS011;32073;49.166;8.076;2023-02-28T16:13:17;13.85;;;7.32;;
46365;SDS011;32073;49.166;8.076;2023-02-28T16:17:27;10.52;;;6.18;;
46365;SDS011;32073;49.166;8.076;2023-02-28T16:21:31;9.27;;;6.20;;
46365;SDS011;32073;49.166;8.076;2023-02-28T16:25:39;12.48;;;6.22;;
46365;SDS011;32073;49.166;8.076;2023-02-28T16:29:42;7.50;;;5.50;;
46365;SDS011;32073;49.166;8.076;2023-02-28T16:33:45;9.10;;;5.47;;
46365;SDS011;32073;49.166;8.076;2023-02-28T16:37:46;8.43;;;5.50;;
46365;SDS011;32073;49.166;8.076;2023-02-28T16:41:47;12.18;;;7.20;;
46365;SDS011;32073;49.166;8.076;2023-02-28T16:45:49;10.85;;;5.80;;
46365;SDS011;32073;49.166;8.076;2023-02-28T16:49:56;11.93;;;7.38;;
46365;SDS011;32073;49.166;8.076;2023-02-28T16:53:57;16.88;;;9.48;;
46365;SDS011;32073;49.166;8.076;2023-02-28T16:57:58;11.98;;;7.47;;
46365;SDS011;32073;49.166;8.076;2023-02-28T17:02:00;8.50;;;5.60;;
46365;SDS011;32073;49.166;8.076;2023-02-28T17:06:01;9.68;;;5.88;;
46365;SDS011;32073;49.166;8.076;2023-02-28T17:10:10;8.30;;;6.07;;
46365;SDS011;32073;49.166;8.076;2023-02-28T17:14:17;8.57;;;5.35;;
46365;SDS011;32073;49.166;8.076;2023-02-28T17:18:18;8.95;;;6.25;;
46365;SDS011;32073;49.166;8.076;2023-02-28T17:22:21;9.27;;;5.63;;
46365;SDS011;32073;49.166;8.076;2023-02-28T17:26:21;10.07;;;5.63;;
46365;SDS011;32073;49.166;8.076;2023-02-28T17:30:27;14.63;;;7.10;;
46365;SDS011;32073;49.166;8.076;2023-02-28T17:34:28;13.20;;;6.70;;
46365;SDS011;32073;49.166;8.076;2023-02-28T17:38:29;10.85;;;6.40;;
46365;SDS011;32073;49.166;8.076;2023-02-28T17:42:30;10.60;;;6.57;;
46365;SDS011;32073;49.166;8.076;2023-02-28T17:46:30;9.02;;;5.80;;
46365;SDS011;32073;49.166;8.076;2023-02-28T17:50:32;10.10;;;5.55;;
46365;SDS011;32073;49.166;8.076;2023-02-28T17:54:33;9.55;;;6.05;;
46365;SDS011;32073;49.166;8.076;2023-02-28T17:58:33;8.82;;;6.47;;
46365;SDS011;32073;49.166;8.076;2023-02-28T18:02:34;20.35;;;6.88;;
46365;SDS011;32073;49.166;8.076;2023-02-28T18:06:38;11.75;;;7.00;;
46365;SDS011;32073;49.166;8.076;2023-02-28T18:10:49;12.88;;;6.57;;
46365;SDS011;32073;49.166;8.076;2023-02-28T18:14:50;11.43;;;7.38;;
46365;SDS011;32073;49.166;8.076;2023-02-28T18:18:50;11.88;;;7.22;;
46365;SDS011;32073;49.166;8.076;2023-02-28T18:22:52;12.15;;;6.95;;
46365;SDS011;32073;49.166;8.076;2023-02-28T18:26:52;10.90;;;7.15;;
46365;SDS011;32073;49.166;8.076;2023-02-28T18:30:53;12.13;;;7.28;;
46365;SDS011;32073;49.166;8.076;2023-02-28T18:34:53;10.05;;;5.90;;
46365;SDS011;32073;49.166;8.076;2023-02-28T18:38:54;14.85;;;8.50;;
46365;SDS011;32073;49.166;8.076;2023-02-28T18:42:55;12.98;;;8.85;;
46365;SDS011;32073;49.166;8.076;2023-02-28T18:46:55;13.23;;;8.13;;
46365;SDS011;32073;49.166;8.076;2023-02-28T18:50:56;11.15;;;7.38;;
46365;SDS011;32073;49.166;8.076;2023-02-28T18:54:57;13.40;;;7.57;;
46365;SDS011;32073;49.166;8.076;2023-02-28T18:58:57;12.63;;;7.68;;
46365;SDS011;32073;49.166;8.076;2023-02-28T19:02:58;14.45;;;8.50;;
46365;SDS011;32073;49.166;8.076;2023-02-28T19:06:59;11.57;;;7.13;;
46365;SDS011;32073;49.166;8.076;2023-02-28T19:11:04;19.15;;;8.07;;
46365;SDS011;32073;49.166;8.076;2023-02-28T19:15:10;13.75;;;7.72;;
46365;SDS011;32073;49.166;8.076;2023-02-28T19:19:11;14.00;;;8.13;;
46365;SDS011;32073;49.166;8.076;2023-02-28T19:23:12;15.30;;;8.50;;
46365;SDS011;32073;49.166;8.076;2023-02-28T19:27:14;16.88;;;9.27;;
46365;SDS011;32073;49.166;8.076;2023-02-28T19:31:17;28.25;;;14.27;;
46365;SDS011;32073;49.166;8.076;2023-02-28T19:35:21;16.05;;;8.70;;
46365;SDS011;32073;49.166;8.076;2023-02-28T19:39:21;22.90;;;12.18;;
46365;SDS011;32073;49.166;8.076;2023-02-28T19:43:22;15.77;;;9.20;;
46365;SDS011;32073;49.166;8.076;2023-02-28T19:47:23;24.50;;;10.82;;
46365;SDS011;32073;49.166;8.076;2023-02-28T19:51:24;54.25;;;22.13;;
46365;SDS011;32073;49.166;8.076;2023-02-28T19:55:24;24.60;;;11.80;;
46365;SDS011;32073;49.166;8.076;2023-02-28T19:59:25;31.88;;;14.65;;
46365;SDS011;32073;49.166;8.076;2023-02-28T20:03:27;125.57;;;35.85;;
46365;SDS011;32073;49.166;8.076;2023-02-28T20:07:27;31.33;;;12.43;;
46365;SDS011;32073;49.166;8.076;2023-02-28T20:11:28;19.25;;;10.20;;
46365;SDS011;32073;49.166;8.076;2023-02-28T20:15:29;17.15;;;9.80;;
46365;SDS011;32073;49.166;8.076;2023-02-28T20:19:31;14.32;;;8.35;;
46365;SDS011;32073;49.166;8.076;2023-02-28T20:23:32;15.57;;;8.40;;
46365;SDS011;32073;49.166;8.076;2023-02-28T20:27:33;10.82;;;6.38;;
46365;SDS011;32073;49.166;8.076;2023-02-28T20:31:34;11.23;;;6.72;;
46365;SDS011;32073;49.166;8.076;2023-02-28T20:35:38;14.15;;;8.95;;
46365;SDS011;32073;49.166;8.076;2023-02-28T20:39:39;19.08;;;10.68;;
46365;SDS011;32073;49.166;8.076;2023-02-28T20:43:40;17.98;;;9.70;;
46365;SDS011;32073;49.166;8.076;2023-02-28T20:47:42;22.10;;;10.52;;
46365;SDS011;32073;49.166;8.076;2023-02-28T20:51:43;17.98;;;9.13;;
46365;SDS011;32073;49.166;8.076;2023-02-28T20:55:54;10.70;;;7.38;;
46365;SDS011;32073;49.166;8.076;2023-02-28T21:00:08;12.02;;;7.60;;
46365;SDS011;32073;49.166;8.076;2023-02-28T21:04:15;11.45;;;6.70;;
46365;SDS011;32073;49.166;8.076;2023-02-28T21:08:15;10.75;;;6.38;;
46365;SDS011;32073;49.166;8.076;2023-02-28T21:12:16;11.27;;;6.80;;
46365;SDS011;32073;49.166;8.076;2023-02-28T21:16:18;9.90;;;5.80;;
46365;SDS011;32073;49.166;8.076;2023-02-28T21:20:22;8.70;;;5.88;;
46365;SDS011;32073;49.166;8.076;2023-02-28T21:24:22;8.00;;;5.30;;
46365;SDS011;32073;49.166;8.076;2023-02-28T21:28:23;9.32;;;5.28;;
46365;SDS011;32073;49.166;8.076;2023-02-28T21:32:23;10.32;;;5.72;;
46365;SDS011;32073;49.166;8.076;2023-02-28T21:36:25;10.00;;;5.85;;
46365;SDS011;32073;49.166;8.076;2023-02-28T21:40:32;11.30;;;5.53;;
46365;SDS011;32073;49.166;8.076;2023-02-28T21:44:32;104.20;;;28.20;;
46365;SDS011;32073;49.166;8.076;2023-02-28T21:48:33;28.73;;;11.05;;
46365;SDS011;32073;49.166;8.076;2023-02-28T21:52:35;17.58;;;8.35;;
46365;SDS011;32073;49.166;8.076;2023-02-28T21:56:36;11.65;;;6.70;;
46365;SDS011;32073;49.166;8.076;2023-02-28T22:00:37;8.95;;;5.63;;
46365;SDS011;32073;49.166;8.076;2023-02-28T22:04:40;10.07;;;5.90;;
46365;SDS011;32073;49.166;8.076;2023-02-28T22:08:42;8.73;;;5.25;;
46365;SDS011;32073;49.166;8.076;2023-02-28T22:12:46;9.70;;;5.65;;
46365;SDS011;32073;49.166;8.076;2023-02-28T22:16:46;10.07;;;5.63;;
46365;SDS011;32073;49.166;8.076;2023-02-28T22:20:52;10.07;;;6.10;;
46365;SDS011;32073;49.166;8.076;2023-02-28T22:24:54;11.65;;;6.40;;
46365;SDS011;32073;49.166;8.076;2023-02-28T22:28:54;10.23;;;5.65;;
46365;SDS011;32073;49.166;8.076;2023-02-28T22:32:56;12.82;;;5.90;;
46365;SDS011;32073;49.166;8.076;2023-02-28T22:36:56;10.10;;;5.55;;
46365;SDS011;32073;49.166;8.076;2023-02-28T22:40:57;9.35;;;5.55;;
46365;SDS011;32073;49.166;8.076;2023-02-28T22:44:58;9.90;;;6.05;;
46365;SDS011;32073;49.166;8.076;2023-02-28T22:48:59;10.68;;;5.90;;
46365;SDS011;32073;49.166;8.076;2023-02-28T22:53:01;9.27;;;5.18;;
46365;SDS011;32073;49.166;8.076;2023-02-28T22:57:02;10.60;;;5.57;;
46365;SDS011;32073;49.166;8.076;2023-02-28T23:01:07;9.68;;;5.63;;
46365;SDS011;32073;49.166;8.076;2023-02-28T23:05:13;10.35;;;5.68;;
46365;SDS011;32073;49.166;8.076;2023-02-28T23:09:15;8.30;;;5.50;;
46365;SDS011;32073;49.166;8.076;2023-02-28T23:13:18;10.88;;;6.32;;
46365;SDS011;32073;49.166;8.076;2023-02-28T23:17:19;10.50;;;6.00;;
46365;SDS011;32073;49.166;8.076;2023-02-28T23:21:20;10.55;;;5.80;;
46365;SDS011;32073;49.166;8.076;2023-02-28T23:25:21;10.50;;;5.97;;
46365;SDS011;32073;49.166;8.076;2023-02-28T23:29:23;10.27;;;5.63;;
46365;SDS011;32073;49.166;8.076;2023-02-28T23:33:25;9.23;;;5.60;;
46365;SDS011;32073;49.166;8.076;2023-02-28T23:37:25;11.25;;;6.10;;
46365;SDS011;32073;49.166;8.076;2023-02-28T23:41:26;11.18;;;6.20;;
46365;SDS011;32073;49.166;8.076;2023-02-28T23:45:27;11.57;;;6.55;;
46365;SDS011;32073;49.166;8.076;2023-02-28T23:49:27;10.15;;;5.63;;
46365;SDS011;32073;49.166;8.076;2023-02-28T23:53:31;9.93;;;5.95;;
46365;SDS011;32073;49.166;8.076;2023-02-28T23:57:33;11.55;;;5.95;;
